sensor_id;sensor_type;location;lat;lon;timestamp;temperature;humidity
46494;DHT22;53214;49.314;6.280;2024-01-30T00:01:13;11.00;99.90
46494;DHT22;53214;49.314;6.280;2024-01-30T00:03:40;11.00;99.90
46494;DHT22;53214;49.314;6.280;2024-01-30T00:06:07;11.00;99.90
46494;DHT22;53214;49.314;6.280;2024-01-30T00:08:34;11.00;99.90
46494;DHT22;53214;49.314;6.280;2024-01-30T00:11:01;11.00;99.90
46494;DHT22;53214;49.314;6.280;2024-01-30T00:13:28;11.00;99.90
46494;DHT22;53214;49.314;6.280;2024-01-30T00:15:55;11.00;99.90
46494;DHT22;53214;49.314;6.280;2024-01-30T00:18:22;11.00;99.90
46494;DHT22;53214;49.314;6.280;2024-01-30T00:20:49;11.00;99.90
46494;DHT22;53214;49.314;6.280;2024-01-30T00:23:15;11.00;99.90
46494;DHT22;53214;49.314;6.280;2024-01-30T00:25:42;11.00;99.90
46494;DHT22;53214;49.314;6.280;2024-01-30T00:28:09;11.00;99.90
46494;DHT22;53214;49.314;6.280;2024-01-30T00:30:36;11.20;99.90
46494;DHT22;53214;49.314;6.280;2024-01-30T00:33:03;11.00;99.90
46494;DHT22;53214;49.314;6.280;2024-01-30T00:35:30;11.00;99.90
46494;DHT22;53214;49.314;6.280;2024-01-30T00:37:57;11.00;99.90
46494;DHT22;53214;49.314;6.280;2024-01-30T00:40:24;10.90;99.90
46494;DHT22;53214;49.314;6.280;2024-01-30T00:42:50;10.90;99.90
46494;DHT22;53214;49.314;6.280;2024-01-30T00:45:17;10.90;99.90
46494;DHT22;53214;49.314;6.280;2024-01-30T00:47:44;10.90;99.90
46494;DHT22;53214;49.314;6.280;2024-01-30T00:50:11;10.90;99.90
46494;DHT22;53214;49.314;6.280;2024-01-30T00:52:38;10.90;99.90
46494;DHT22;53214;49.314;6.280;2024-01-30T00:55:06;10.90;99.90
46494;DHT22;53214;49.314;6.280;2024-01-30T00:57:34;10.90;99.90
46494;DHT22;53214;49.314;6.280;2024-01-30T01:00:00;10.90;99.90
46494;DHT22;53214;49.314;6.280;2024-01-30T01:02:28;10.70;99.90
46494;DHT22;53214;49.314;6.280;2024-01-30T01:04:54;10.80;99.90
46494;DHT22;53214;49.314;6.280;2024-01-30T01:07:21;10.80;99.90
46494;DHT22;53214;49.314;6.280;2024-01-30T01:09:48;10.90;99.90
46494;DHT22;53214;49.314;6.280;2024-01-30T01:12:15;10.90;99.90
46494;DHT22;53214;49.314;6.280;2024-01-30T01:14:42;10.90;99.90
46494;DHT22;53214;49.314;6.280;2024-01-30T01:17:09;10.90;99.90
46494;DHT22;53214;49.314;6.280;2024-01-30T01:19:36;10.90;99.90
46494;DHT22;53214;49.314;6.280;2024-01-30T01:22:03;10.90;99.90
46494;DHT22;53214;49.314;6.280;2024-01-30T01:24:33;10.80;99.90
46494;DHT22;53214;49.314;6.280;2024-01-30T01:27:00;10.80;99.90
46494;DHT22;53214;49.314;6.280;2024-01-30T01:29:27;10.70;99.90
46494;DHT22;53214;49.314;6.280;2024-01-30T01:31:57;10.70;99.90
46494;DHT22;53214;49.314;6.280;2024-01-30T01:34:24;10.70;99.90
46494;DHT22;53214;49.314;6.280;2024-01-30T01:36:56;10.70;99.90
46494;DHT22;53214;49.314;6.280;2024-01-30T01:39:23;10.70;99.90
46494;DHT22;53214;49.314;6.280;2024-01-30T01:41:50;10.70;99.90
46494;DHT22;53214;49.314;6.280;2024-01-30T01:44:18;10.80;99.90
46494;DHT22;53214;49.314;6.280;2024-01-30T01:46:45;10.90;99.90
46494;DHT22;53214;49.314;6.280;2024-01-30T01:49:12;10.80;99.90
46494;DHT22;53214;49.314;6.280;2024-01-30T01:51:41;10.90;99.90
46494;DHT22;53214;49.314;6.280;2024-01-30T01:54:09;10.90;99.90
46494;DHT22;53214;49.314;6.280;2024-01-30T01:56:36;10.90;99.90
46494;DHT22;53214;49.314;6.280;2024-01-30T01:59:05;10.90;99.90
46494;DHT22;53214;49.314;6.280;2024-01-30T02:01:35;10.90;99.90
46494;DHT22;53214;49.314;6.280;2024-01-30T02:04:03;11.00;99.90
46494;DHT22;53214;49.314;6.280;2024-01-30T02:06:31;10.90;99.90
46494;DHT22;53214;49.314;6.280;2024-01-30T02:08:58;10.90;99.90
46494;DHT22;53214;49.314;6.280;2024-01-30T02:11:25;11.00;99.90
46494;DHT22;53214;49.314;6.280;2024-01-30T02:13:52;10.90;99.90
46494;DHT22;53214;49.314;6.280;2024-01-30T02:16:19;11.00;99.90
46494;DHT22;53214;49.314;6.280;2024-01-30T02:18:46;10.90;99.90
46494;DHT22;53214;49.314;6.280;2024-01-30T02:21:16;10.90;99.90
46494;DHT22;53214;49.314;6.280;2024-01-30T02:23:49;11.00;99.90
46494;DHT22;53214;49.314;6.280;2024-01-30T02:26:17;11.00;99.90
46494;DHT22;53214;49.314;6.280;2024-01-30T02:28:44;10.90;99.90
46494;DHT22;53214;49.314;6.280;2024-01-30T02:31:10;10.90;99.90
46494;DHT22;53214;49.314;6.280;2024-01-30T02:33:37;10.90;99.90
46494;DHT22;53214;49.314;6.280;2024-01-30T02:36:04;10.90;99.90
46494;DHT22;53214;49.314;6.280;2024-01-30T02:38:31;10.90;99.90
46494;DHT22;53214;49.314;6.280;2024-01-30T02:40:58;10.90;99.90
46494;DHT22;53214;49.314;6.280;2024-01-30T02:43:25;10.90;99.90
46494;DHT22;53214;49.314;6.280;2024-01-30T02:45:52;10.90;99.90
46494;DHT22;53214;49.314;6.280;2024-01-30T02:48:19;10.90;99.90
46494;DHT22;53214;49.314;6.280;2024-01-30T02:50:45;10.90;99.90
46494;DHT22;53214;49.314;6.280;2024-01-30T02:53:13;10.90;99.90
46494;DHT22;53214;49.314;6.280;2024-01-30T02:55:40;10.90;99.90
46494;DHT22;53214;49.314;6.280;2024-01-30T02:58:07;10.80;99.90
46494;DHT22;53214;49.314;6.280;2024-01-30T03:00:34;10.80;99.90
46494;DHT22;53214;49.314;6.280;2024-01-30T03:03:01;10.80;99.90
46494;DHT22;53214;49.314;6.280;2024-01-30T03:05:28;10.80;99.90
46494;DHT22;53214;49.314;6.280;2024-01-30T03:07:55;10.70;99.90
46494;DHT22;53214;49.314;6.280;2024-01-30T03:10:23;10.70;99.90
46494;DHT22;53214;49.314;6.280;2024-01-30T03:12:50;10.60;99.90
46494;DHT22;53214;49.314;6.280;2024-01-30T03:15:17;10.60;99.90
46494;DHT22;53214;49.314;6.280;2024-01-30T03:17:44;10.60;99.90
46494;DHT22;53214;49.314;6.280;2024-01-30T03:20:11;10.60;99.90
46494;DHT22;53214;49.314;6.280;2024-01-30T03:22:38;10.50;99.90
46494;DHT22;53214;49.314;6.280;2024-01-30T03:25:05;10.50;99.90
46494;DHT22;53214;49.314;6.280;2024-01-30T03:27:33;10.40;99.90
46494;DHT22;53214;49.314;6.280;2024-01-30T03:29:59;10.40;99.90
46494;DHT22;53214;49.314;6.280;2024-01-30T03:32:26;10.30;99.90
46494;DHT22;53214;49.314;6.280;2024-01-30T03:34:53;10.30;99.90
46494;DHT22;53214;49.314;6.280;2024-01-30T03:37:20;10.30;99.90
46494;DHT22;53214;49.314;6.280;2024-01-30T03:39:47;10.30;99.90
46494;DHT22;53214;49.314;6.280;2024-01-30T03:42:14;10.30;99.90
46494;DHT22;53214;49.314;6.280;2024-01-30T03:44:41;10.30;99.90
46494;DHT22;53214;49.314;6.280;2024-01-30T03:47:09;10.30;99.90
46494;DHT22;53214;49.314;6.280;2024-01-30T03:49:36;10.30;99.90
46494;DHT22;53214;49.314;6.280;2024-01-30T03:52:03;10.20;99.90
46494;DHT22;53214;49.314;6.280;2024-01-30T03:54:29;10.30;99.90
46494;DHT22;53214;49.314;6.280;2024-01-30T03:56:56;10.40;99.90
46494;DHT22;53214;49.314;6.280;2024-01-30T03:59:23;10.20;99.90
46494;DHT22;53214;49.314;6.280;2024-01-30T04:01:51;10.30;99.90
46494;DHT22;53214;49.314;6.280;2024-01-30T04:04:18;10.30;99.90
46494;DHT22;53214;49.314;6.280;2024-01-30T04:06:46;10.30;99.90
46494;DHT22;53214;49.314;6.280;2024-01-30T04:09:13;10.20;99.90
46494;DHT22;53214;49.314;6.280;2024-01-30T04:11:41;10.20;99.90
46494;DHT22;53214;49.314;6.280;2024-01-30T04:14:10;10.20;99.90
46494;DHT22;53214;49.314;6.280;2024-01-30T04:16:37;10.20;99.90
46494;DHT22;53214;49.314;6.280;2024-01-30T04:19:04;10.20;99.90
46494;DHT22;53214;49.314;6.280;2024-01-30T04:21:31;10.30;99.90
46494;DHT22;53214;49.314;6.280;2024-01-30T04:23:58;10.10;99.90
46494;DHT22;53214;49.314;6.280;2024-01-30T04:26:25;10.20;99.90
46494;DHT22;53214;49.314;6.280;2024-01-30T04:28:51;10.10;99.90
46494;DHT22;53214;49.314;6.280;2024-01-30T04:31:18;10.10;99.90
46494;DHT22;53214;49.314;6.280;2024-01-30T04:33:45;10.10;99.90
46494;DHT22;53214;49.314;6.280;2024-01-30T04:36:12;10.10;99.90
46494;DHT22;53214;49.314;6.280;2024-01-30T04:38:39;10.10;99.90
46494;DHT22;53214;49.314;6.280;2024-01-30T04:41:06;10.10;99.90
46494;DHT22;53214;49.314;6.280;2024-01-30T04:43:33;10.10;99.90
46494;DHT22;53214;49.314;6.280;2024-01-30T04:46:00;10.00;99.90
46494;DHT22;53214;49.314;6.280;2024-01-30T04:48:27;10.00;99.90
46494;DHT22;53214;49.314;6.280;2024-01-30T04:50:54;10.10;99.90
46494;DHT22;53214;49.314;6.280;2024-01-30T04:53:22;10.10;99.90
46494;DHT22;53214;49.314;6.280;2024-01-30T04:55:49;10.00;99.90
46494;DHT22;53214;49.314;6.280;2024-01-30T04:58:16;10.00;99.90
46494;DHT22;53214;49.314;6.280;2024-01-30T05:00:43;10.00;99.90
46494;DHT22;53214;49.314;6.280;2024-01-30T05:03:10;10.00;99.90
46494;DHT22;53214;49.314;6.280;2024-01-30T05:05:37;10.00;99.90
46494;DHT22;53214;49.314;6.280;2024-01-30T05:08:04;10.00;99.90
46494;DHT22;53214;49.314;6.280;2024-01-30T05:10:31;10.00;99.90
46494;DHT22;53214;49.314;6.280;2024-01-30T05:12:58;10.10;99.90
46494;DHT22;53214;49.314;6.280;2024-01-30T05:15:24;10.00;99.90
46494;DHT22;53214;49.314;6.280;2024-01-30T05:17:51;9.90;99.90
46494;DHT22;53214;49.314;6.280;2024-01-30T05:20:19;10.00;99.90
46494;DHT22;53214;49.314;6.280;2024-01-30T05:22:46;10.00;99.90
46494;DHT22;53214;49.314;6.280;2024-01-30T05:25:13;9.90;99.90
46494;DHT22;53214;49.314;6.280;2024-01-30T05:27:40;9.90;99.90
46494;DHT22;53214;49.314;6.280;2024-01-30T05:30:07;9.90;99.90
46494;DHT22;53214;49.314;6.280;2024-01-30T05:32:34;9.90;99.90
46494;DHT22;53214;49.314;6.280;2024-01-30T05:35:01;9.90;99.90
46494;DHT22;53214;49.314;6.280;2024-01-30T05:37:28;9.80;99.90
46494;DHT22;53214;49.314;6.280;2024-01-30T05:39:55;9.80;99.90
46494;DHT22;53214;49.314;6.280;2024-01-30T05:42:22;9.70;99.90
46494;DHT22;53214;49.314;6.280;2024-01-30T05:44:49;9.70;99.90
46494;DHT22;53214;49.314;6.280;2024-01-30T05:47:15;9.60;99.90
46494;DHT22;53214;49.314;6.280;2024-01-30T05:49:42;9.50;99.90
46494;DHT22;53214;49.314;6.280;2024-01-30T05:52:09;9.50;99.90
46494;DHT22;53214;49.314;6.280;2024-01-30T05:54:36;9.50;99.90
46494;DHT22;53214;49.314;6.280;2024-01-30T05:57:03;9.50;99.90
46494;DHT22;53214;49.314;6.280;2024-01-30T05:59:30;9.50;99.90
46494;DHT22;53214;49.314;6.280;2024-01-30T06:01:57;9.50;99.90
46494;DHT22;53214;49.314;6.280;2024-01-30T06:04:24;9.50;99.90
46494;DHT22;53214;49.314;6.280;2024-01-30T06:06:50;9.50;99.90
46494;DHT22;53214;49.314;6.280;2024-01-30T06:09:17;9.40;99.90
46494;DHT22;53214;49.314;6.280;2024-01-30T06:11:45;9.40;99.90
46494;DHT22;53214;49.314;6.280;2024-01-30T06:14:11;9.40;99.90
46494;DHT22;53214;49.314;6.280;2024-01-30T06:16:38;9.40;99.90
46494;DHT22;53214;49.314;6.280;2024-01-30T06:19:05;9.40;99.90
46494;DHT22;53214;49.314;6.280;2024-01-30T06:21:32;9.40;99.90
46494;DHT22;53214;49.314;6.280;2024-01-30T06:24:03;9.30;99.90
46494;DHT22;53214;49.314;6.280;2024-01-30T06:26:30;9.40;99.90
46494;DHT22;53214;49.314;6.280;2024-01-30T06:28:57;9.40;99.90
46494;DHT22;53214;49.314;6.280;2024-01-30T06:31:23;9.40;99.90
46494;DHT22;53214;49.314;6.280;2024-01-30T06:33:50;9.30;99.90
46494;DHT22;53214;49.314;6.280;2024-01-30T06:36:17;9.30;99.90
46494;DHT22;53214;49.314;6.280;2024-01-30T06:38:44;9.10;99.90
46494;DHT22;53214;49.314;6.280;2024-01-30T06:41:11;9.20;99.90
46494;DHT22;53214;49.314;6.280;2024-01-30T06:43:38;9.10;99.90
46494;DHT22;53214;49.314;6.280;2024-01-30T06:46:04;9.00;99.90
46494;DHT22;53214;49.314;6.280;2024-01-30T06:48:31;8.80;99.90
46494;DHT22;53214;49.314;6.280;2024-01-30T06:50:58;8.70;99.90
46494;DHT22;53214;49.314;6.280;2024-01-30T06:53:25;8.60;99.90
46494;DHT22;53214;49.314;6.280;2024-01-30T06:55:53;8.50;99.90
46494;DHT22;53214;49.314;6.280;2024-01-30T06:58:19;8.40;99.90
46494;DHT22;53214;49.314;6.280;2024-01-30T07:00:46;8.30;99.90
46494;DHT22;53214;49.314;6.280;2024-01-30T07:03:13;8.20;99.90
46494;DHT22;53214;49.314;6.280;2024-01-30T07:05:40;8.20;99.90
46494;DHT22;53214;49.314;6.280;2024-01-30T07:08:07;8.10;99.90
46494;DHT22;53214;49.314;6.280;2024-01-30T07:10:34;8.00;99.90
46494;DHT22;53214;49.314;6.280;2024-01-30T07:13:01;7.90;99.90
46494;DHT22;53214;49.314;6.280;2024-01-30T07:15:28;7.90;99.90
46494;DHT22;53214;49.314;6.280;2024-01-30T07:17:55;7.80;99.90
46494;DHT22;53214;49.314;6.280;2024-01-30T07:20:22;7.80;99.90
46494;DHT22;53214;49.314;6.280;2024-01-30T07:22:49;7.70;99.90
46494;DHT22;53214;49.314;6.280;2024-01-30T07:25:16;7.70;99.90
46494;DHT22;53214;49.314;6.280;2024-01-30T07:27:44;7.70;99.90
46494;DHT22;53214;49.314;6.280;2024-01-30T07:30:11;7.70;99.90
46494;DHT22;53214;49.314;6.280;2024-01-30T07:32:38;7.60;99.90
46494;DHT22;53214;49.314;6.280;2024-01-30T07:35:05;7.60;99.90
46494;DHT22;53214;49.314;6.280;2024-01-30T07:37:35;7.60;99.90
46494;DHT22;53214;49.314;6.280;2024-01-30T07:40:02;7.50;99.90
46494;DHT22;53214;49.314;6.280;2024-01-30T07:42:30;7.50;99.90
46494;DHT22;53214;49.314;6.280;2024-01-30T07:44:57;7.40;99.90
46494;DHT22;53214;49.314;6.280;2024-01-30T07:47:24;7.40;99.90
46494;DHT22;53214;49.314;6.280;2024-01-30T07:49:51;7.40;99.90
46494;DHT22;53214;49.314;6.280;2024-01-30T07:52:18;7.40;99.90
46494;DHT22;53214;49.314;6.280;2024-01-30T07:54:48;7.40;99.90
46494;DHT22;53214;49.314;6.280;2024-01-30T07:57:16;7.30;99.90
46494;DHT22;53214;49.314;6.280;2024-01-30T07:59:44;7.30;99.90
46494;DHT22;53214;49.314;6.280;2024-01-30T08:02:14;7.30;99.90
46494;DHT22;53214;49.314;6.280;2024-01-30T08:04:41;7.30;99.90
46494;DHT22;53214;49.314;6.280;2024-01-30T08:07:08;7.30;99.90
46494;DHT22;53214;49.314;6.280;2024-01-30T08:09:36;7.30;99.90
46494;DHT22;53214;49.314;6.280;2024-01-30T08:12:02;7.30;99.90
46494;DHT22;53214;49.314;6.280;2024-01-30T08:14:29;7.30;99.90
46494;DHT22;53214;49.314;6.280;2024-01-30T08:16:56;7.30;99.90
46494;DHT22;53214;49.314;6.280;2024-01-30T08:19:23;7.30;99.90
46494;DHT22;53214;49.314;6.280;2024-01-30T08:21:50;7.40;99.90
46494;DHT22;53214;49.314;6.280;2024-01-30T08:24:17;7.40;99.90
46494;DHT22;53214;49.314;6.280;2024-01-30T08:26:43;7.50;99.90
46494;DHT22;53214;49.314;6.280;2024-01-30T08:29:10;7.50;99.90
46494;DHT22;53214;49.314;6.280;2024-01-30T08:31:37;7.60;99.90
46494;DHT22;53214;49.314;6.280;2024-01-30T08:34:04;7.60;99.90
46494;DHT22;53214;49.314;6.280;2024-01-30T08:36:31;7.60;99.90
46494;DHT22;53214;49.314;6.280;2024-01-30T08:38:58;7.60;99.90
46494;DHT22;53214;49.314;6.280;2024-01-30T08:41:29;7.60;99.90
46494;DHT22;53214;49.314;6.280;2024-01-30T08:43:56;7.60;99.90
46494;DHT22;53214;49.314;6.280;2024-01-30T08:46:23;7.60;99.90
46494;DHT22;53214;49.314;6.280;2024-01-30T08:48:50;7.60;99.90
46494;DHT22;53214;49.314;6.280;2024-01-30T08:51:17;7.60;99.90
46494;DHT22;53214;49.314;6.280;2024-01-30T08:53:44;7.70;99.90
46494;DHT22;53214;49.314;6.280;2024-01-30T08:56:11;7.70;99.90
46494;DHT22;53214;49.314;6.280;2024-01-30T08:58:38;7.80;99.90
46494;DHT22;53214;49.314;6.280;2024-01-30T09:01:05;7.80;99.90
46494;DHT22;53214;49.314;6.280;2024-01-30T09:03:32;7.80;99.90
46494;DHT22;53214;49.314;6.280;2024-01-30T09:05:59;7.80;99.90
46494;DHT22;53214;49.314;6.280;2024-01-30T09:08:26;7.80;99.90
46494;DHT22;53214;49.314;6.280;2024-01-30T09:10:53;7.90;99.90
46494;DHT22;53214;49.314;6.280;2024-01-30T09:13:20;7.90;99.90
46494;DHT22;53214;49.314;6.280;2024-01-30T09:15:47;7.90;99.90
46494;DHT22;53214;49.314;6.280;2024-01-30T09:18:14;7.90;99.90
46494;DHT22;53214;49.314;6.280;2024-01-30T09:20:41;7.90;99.90
46494;DHT22;53214;49.314;6.280;2024-01-30T09:23:08;8.00;99.90
46494;DHT22;53214;49.314;6.280;2024-01-30T09:25:35;8.00;99.90
46494;DHT22;53214;49.314;6.280;2024-01-30T09:28:02;8.00;99.90
46494;DHT22;53214;49.314;6.280;2024-01-30T09:30:28;8.10;99.90
46494;DHT22;53214;49.314;6.280;2024-01-30T09:32:55;8.10;99.90
46494;DHT22;53214;49.314;6.280;2024-01-30T09:35:22;8.20;99.90
46494;DHT22;53214;49.314;6.280;2024-01-30T09:37:49;8.10;99.90
46494;DHT22;53214;49.314;6.280;2024-01-30T09:40:16;8.20;99.90
46494;DHT22;53214;49.314;6.280;2024-01-30T09:42:50;8.20;99.90
46494;DHT22;53214;49.314;6.280;2024-01-30T09:45:18;8.30;99.90
46494;DHT22;53214;49.314;6.280;2024-01-30T09:47:46;8.30;99.90
46494;DHT22;53214;49.314;6.280;2024-01-30T09:50:15;8.40;99.90
46494;DHT22;53214;49.314;6.280;2024-01-30T09:52:45;8.40;99.90
46494;DHT22;53214;49.314;6.280;2024-01-30T09:55:13;8.40;99.90
46494;DHT22;53214;49.314;6.280;2024-01-30T09:57:41;8.50;99.90
46494;DHT22;53214;49.314;6.280;2024-01-30T10:00:08;8.60;99.90
46494;DHT22;53214;49.314;6.280;2024-01-30T10:02:35;8.60;99.90
46494;DHT22;53214;49.314;6.280;2024-01-30T10:05:02;8.70;99.90
46494;DHT22;53214;49.314;6.280;2024-01-30T10:07:30;8.70;99.90
46494;DHT22;53214;49.314;6.280;2024-01-30T10:09:57;8.70;99.90
46494;DHT22;53214;49.314;6.280;2024-01-30T10:12:26;8.80;99.90
46494;DHT22;53214;49.314;6.280;2024-01-30T10:14:53;8.80;99.90
46494;DHT22;53214;49.314;6.280;2024-01-30T10:17:25;8.90;99.90
46494;DHT22;53214;49.314;6.280;2024-01-30T10:20:00;8.90;99.90
46494;DHT22;53214;49.314;6.280;2024-01-30T10:22:28;8.90;99.90
46494;DHT22;53214;49.314;6.280;2024-01-30T10:24:55;9.00;99.90
46494;DHT22;53214;49.314;6.280;2024-01-30T10:27:26;9.00;99.90
46494;DHT22;53214;49.314;6.280;2024-01-30T10:29:53;9.00;99.90
46494;DHT22;53214;49.314;6.280;2024-01-30T10:32:21;9.10;99.90
46494;DHT22;53214;49.314;6.280;2024-01-30T10:34:47;9.10;99.90
46494;DHT22;53214;49.314;6.280;2024-01-30T10:37:15;9.10;99.90
46494;DHT22;53214;49.314;6.280;2024-01-30T10:39:45;9.20;99.90
46494;DHT22;53214;49.314;6.280;2024-01-30T10:42:13;9.20;99.90
46494;DHT22;53214;49.314;6.280;2024-01-30T10:45:05;9.30;99.90
46494;DHT22;53214;49.314;6.280;2024-01-30T10:47:35;9.30;99.90
46494;DHT22;53214;49.314;6.280;2024-01-30T10:50:05;9.30;99.90
46494;DHT22;53214;49.314;6.280;2024-01-30T10:52:34;9.40;99.90
46494;DHT22;53214;49.314;6.280;2024-01-30T10:55:04;9.40;99.90
46494;DHT22;53214;49.314;6.280;2024-01-30T10:57:34;9.40;99.90
46494;DHT22;53214;49.314;6.280;2024-01-30T11:00:03;9.50;99.90
46494;DHT22;53214;49.314;6.280;2024-01-30T11:02:46;9.50;99.90
46494;DHT22;53214;49.314;6.280;2024-01-30T11:05:14;9.60;99.90
46494;DHT22;53214;49.314;6.280;2024-01-30T11:07:42;9.60;99.90
46494;DHT22;53214;49.314;6.280;2024-01-30T11:10:09;9.70;99.90
46494;DHT22;53214;49.314;6.280;2024-01-30T11:12:40;9.70;99.90
46494;DHT22;53214;49.314;6.280;2024-01-30T11:15:13;9.70;99.90
46494;DHT22;53214;49.314;6.280;2024-01-30T11:20:21;9.80;99.90
46494;DHT22;53214;49.314;6.280;2024-01-30T11:22:51;9.80;99.90
46494;DHT22;53214;49.314;6.280;2024-01-30T11:25:22;9.80;99.90
46494;DHT22;53214;49.314;6.280;2024-01-30T11:27:52;9.90;99.90
46494;DHT22;53214;49.314;6.280;2024-01-30T11:33:09;10.00;99.90
46494;DHT22;53214;49.314;6.280;2024-01-30T11:35:39;10.10;99.90
46494;DHT22;53214;49.314;6.280;2024-01-30T11:38:09;10.30;99.90
46494;DHT22;53214;49.314;6.280;2024-01-30T11:40:38;10.50;99.90
46494;DHT22;53214;49.314;6.280;2024-01-30T11:43:06;10.80;99.90
46494;DHT22;53214;49.314;6.280;2024-01-30T11:45:35;11.00;99.90
46494;DHT22;53214;49.314;6.280;2024-01-30T11:48:03;11.20;99.90
46494;DHT22;53214;49.314;6.280;2024-01-30T11:50:33;11.50;99.90
46494;DHT22;53214;49.314;6.280;2024-01-30T11:53:01;11.80;99.90
46494;DHT22;53214;49.314;6.280;2024-01-30T11:55:29;12.10;99.90
46494;DHT22;53214;49.314;6.280;2024-01-30T11:58:01;12.00;99.90
46494;DHT22;53214;49.314;6.280;2024-01-30T12:00:28;11.70;99.90
46494;DHT22;53214;49.314;6.280;2024-01-30T12:02:57;11.60;99.90
46494;DHT22;53214;49.314;6.280;2024-01-30T12:05:27;11.40;99.90
46494;DHT22;53214;49.314;6.280;2024-01-30T12:07:54;11.30;99.90
46494;DHT22;53214;49.314;6.280;2024-01-30T12:10:21;11.10;99.90
46494;DHT22;53214;49.314;6.280;2024-01-30T12:12:51;10.90;99.90
46494;DHT22;53214;49.314;6.280;2024-01-30T12:15:18;10.80;99.90
46494;DHT22;53214;49.314;6.280;2024-01-30T12:17:48;10.70;99.90
46494;DHT22;53214;49.314;6.280;2024-01-30T12:20:18;10.70;99.90
46494;DHT22;53214;49.314;6.280;2024-01-30T12:22:48;10.80;99.90
46494;DHT22;53214;49.314;6.280;2024-01-30T12:25:17;10.90;99.90
46494;DHT22;53214;49.314;6.280;2024-01-30T12:27:48;11.20;99.90
46494;DHT22;53214;49.314;6.280;2024-01-30T12:30:20;11.50;99.90
46494;DHT22;53214;49.314;6.280;2024-01-30T12:32:50;11.40;99.70
46494;DHT22;53214;49.314;6.280;2024-01-30T12:35:19;11.30;99.90
46494;DHT22;53214;49.314;6.280;2024-01-30T12:37:48;11.00;99.90
46494;DHT22;53214;49.314;6.280;2024-01-30T12:40:15;10.80;99.90
46494;DHT22;53214;49.314;6.280;2024-01-30T12:42:43;10.60;99.90
46494;DHT22;53214;49.314;6.280;2024-01-30T12:45:16;10.60;99.90
46494;DHT22;53214;49.314;6.280;2024-01-30T12:47:46;10.70;99.90
46494;DHT22;53214;49.314;6.280;2024-01-30T12:50:14;10.90;99.90
46494;DHT22;53214;49.314;6.280;2024-01-30T12:52:43;11.20;99.90
46494;DHT22;53214;49.314;6.280;2024-01-30T12:55:13;11.50;99.90
46494;DHT22;53214;49.314;6.280;2024-01-30T12:57:40;11.70;99.90
46494;DHT22;53214;49.314;6.280;2024-01-30T13:00:08;11.70;99.90
46494;DHT22;53214;49.314;6.280;2024-01-30T13:02:35;11.80;99.90
46494;DHT22;53214;49.314;6.280;2024-01-30T13:05:03;11.80;99.90
46494;DHT22;53214;49.314;6.280;2024-01-30T13:07:31;11.80;99.30
46494;DHT22;53214;49.314;6.280;2024-01-30T13:09:58;11.90;98.70
46494;DHT22;53214;49.314;6.280;2024-01-30T13:12:30;11.90;99.10
46494;DHT22;53214;49.314;6.280;2024-01-30T13:14:59;11.90;98.80
46494;DHT22;53214;49.314;6.280;2024-01-30T13:17:28;11.80;98.30
46494;DHT22;53214;49.314;6.280;2024-01-30T13:19:55;11.60;97.90
46494;DHT22;53214;49.314;6.280;2024-01-30T13:22:28;11.50;98.70
46494;DHT22;53214;49.314;6.280;2024-01-30T13:24:55;11.30;98.90
46494;DHT22;53214;49.314;6.280;2024-01-30T13:27:22;11.10;99.50
46494;DHT22;53214;49.314;6.280;2024-01-30T13:29:48;11.20;99.70
46494;DHT22;53214;49.314;6.280;2024-01-30T13:32:15;11.20;99.10
46494;DHT22;53214;49.314;6.280;2024-01-30T13:34:42;11.40;98.90
46494;DHT22;53214;49.314;6.280;2024-01-30T13:37:09;11.60;98.50
46494;DHT22;53214;49.314;6.280;2024-01-30T13:39:37;11.50;98.80
46494;DHT22;53214;49.314;6.280;2024-01-30T13:42:05;11.50;99.80
46494;DHT22;53214;49.314;6.280;2024-01-30T13:44:34;11.60;98.60
46494;DHT22;53214;49.314;6.280;2024-01-30T13:47:00;11.70;98.10
46494;DHT22;53214;49.314;6.280;2024-01-30T13:49:27;11.70;97.80
46494;DHT22;53214;49.314;6.280;2024-01-30T13:51:55;11.70;98.60
46494;DHT22;53214;49.314;6.280;2024-01-30T13:54:23;11.70;98.80
46494;DHT22;53214;49.314;6.280;2024-01-30T13:56:50;11.70;98.50
46494;DHT22;53214;49.314;6.280;2024-01-30T13:59:17;11.70;98.50
46494;DHT22;53214;49.314;6.280;2024-01-30T14:01:50;11.70;98.30
46494;DHT22;53214;49.314;6.280;2024-01-30T14:04:17;11.70;98.40
46494;DHT22;53214;49.314;6.280;2024-01-30T14:06:44;11.70;97.90
46494;DHT22;53214;49.314;6.280;2024-01-30T14:09:22;11.80;97.70
46494;DHT22;53214;49.314;6.280;2024-01-30T14:11:49;11.80;97.80
46494;DHT22;53214;49.314;6.280;2024-01-30T14:14:16;11.80;97.80
46494;DHT22;53214;49.314;6.280;2024-01-30T14:16:43;11.80;97.60
46494;DHT22;53214;49.314;6.280;2024-01-30T14:19:09;11.80;97.90
46494;DHT22;53214;49.314;6.280;2024-01-30T14:21:36;11.80;97.20
46494;DHT22;53214;49.314;6.280;2024-01-30T14:24:04;11.80;97.40
46494;DHT22;53214;49.314;6.280;2024-01-30T14:26:31;11.80;97.50
46494;DHT22;53214;49.314;6.280;2024-01-30T14:28:57;11.80;97.40
46494;DHT22;53214;49.314;6.280;2024-01-30T14:31:24;11.80;97.80
46494;DHT22;53214;49.314;6.280;2024-01-30T14:33:51;11.80;97.30
46494;DHT22;53214;49.314;6.280;2024-01-30T14:36:19;11.80;97.00
46494;DHT22;53214;49.314;6.280;2024-01-30T14:38:47;11.70;97.20
46494;DHT22;53214;49.314;6.280;2024-01-30T14:41:13;11.70;97.00
46494;DHT22;53214;49.314;6.280;2024-01-30T14:43:41;11.60;97.00
46494;DHT22;53214;49.314;6.280;2024-01-30T14:46:07;11.60;96.70
46494;DHT22;53214;49.314;6.280;2024-01-30T14:48:34;11.60;96.90
46494;DHT22;53214;49.314;6.280;2024-01-30T14:51:01;11.50;96.70
46494;DHT22;53214;49.314;6.280;2024-01-30T14:53:28;11.50;96.10
46494;DHT22;53214;49.314;6.280;2024-01-30T14:55:55;11.60;96.60
46494;DHT22;53214;49.314;6.280;2024-01-30T14:58:22;11.40;96.50
46494;DHT22;53214;49.314;6.280;2024-01-30T15:00:49;11.30;96.40
46494;DHT22;53214;49.314;6.280;2024-01-30T15:03:16;11.30;96.80
46494;DHT22;53214;49.314;6.280;2024-01-30T15:05:42;11.20;96.80
46494;DHT22;53214;49.314;6.280;2024-01-30T15:08:09;11.20;96.70
46494;DHT22;53214;49.314;6.280;2024-01-30T15:10:36;11.20;97.20
46494;DHT22;53214;49.314;6.280;2024-01-30T15:13:03;11.30;96.70
46494;DHT22;53214;49.314;6.280;2024-01-30T15:15:30;11.30;96.50
46494;DHT22;53214;49.314;6.280;2024-01-30T15:17:57;11.40;96.40
46494;DHT22;53214;49.314;6.280;2024-01-30T15:20:25;11.20;96.30
46494;DHT22;53214;49.314;6.280;2024-01-30T15:22:52;11.10;96.70
46494;DHT22;53214;49.314;6.280;2024-01-30T15:25:18;10.90;97.30
46494;DHT22;53214;49.314;6.280;2024-01-30T15:27:45;10.90;97.90
46494;DHT22;53214;49.314;6.280;2024-01-30T15:30:12;10.90;97.80
46494;DHT22;53214;49.314;6.280;2024-01-30T15:32:39;10.90;97.60
46494;DHT22;53214;49.314;6.280;2024-01-30T15:35:06;10.80;97.70
46494;DHT22;53214;49.314;6.280;2024-01-30T15:37:33;10.70;98.00
46494;DHT22;53214;49.314;6.280;2024-01-30T15:40:01;10.80;98.20
46494;DHT22;53214;49.314;6.280;2024-01-30T15:42:29;10.80;98.10
46494;DHT22;53214;49.314;6.280;2024-01-30T15:44:55;10.80;98.50